Time;durP1;ratioP1;P1;durP2;ratioP2;P2;SDS_P1;SDS_P2;PMS_P1;PMS_P2;Temp;Humidity;BMP_temperature;BMP_pressure;BME280_temperature;BME280_humidity;BME280_pressure;Samples;Min_cycle;Max_cycle;Signal;HPM_P1;HPM_P2
2023/08/16 00:01:49;;;;;;;4.25;3.85;;;;;;;28.15;53.16;101137.25;5054453;28;20049;-58
2023/08/16 00:04:16;;;;;;;4.70;4.30;;;;;;;28.15;52.70;101145.44;5054211;28;20139;-57
2023/08/16 00:06:44;;;;;;;4.93;4.53;;;;;;;28.15;53.33;101140.00;5054265;28;20392;-57
2023/08/16 00:09:11;;;;;;;4.53;4.10;;;;;;;28.14;53.22;101147.31;5053582;28;20053;-57
2023/08/16 00:11:39;;;;;;;4.28;3.88;;;;;;;28.15;53.07;101140.84;5054059;28;20044;-57
2023/08/16 00:14:07;;;;;;;4.88;4.38;;;;;;;28.16;53.01;101147.16;5054277;28;20403;-58
2023/08/16 00:16:34;;;;;;;4.63;4.22;;;;;;;28.16;52.90;101147.16;5053907;28;20052;-57
2023/08/16 00:19:02;;;;;;;4.45;4.05;;;;;;;28.16;52.83;101145.28;5052428;28;20060;-59
2023/08/16 00:21:29;;;;;;;4.57;4.18;;;;;;;28.16;53.26;101147.16;5054230;28;20060;-59
2023/08/16 00:23:56;;;;;;;4.88;4.47;;;;;;;28.16;53.30;101147.16;5053756;28;20033;-59
2023/08/16 00:26:24;;;;;;;4.50;4.10;;;;;;;28.16;52.91;101141.72;5053945;28;20423;-59
2023/08/16 00:28:53;;;;;;;4.25;3.85;;;;;;;28.16;52.92;101153.44;5053080;28;20052;-57
2023/08/16 00:31:20;;;;;;;4.10;3.70;;;;;;;28.15;52.94;101161.75;5053421;28;20404;-57
2023/08/16 00:33:48;;;;;;;4.93;4.53;;;;;;;28.16;53.30;101155.31;5053530;28;20045;-57
2023/08/16 00:36:15;;;;;;;4.53;4.13;;;;;;;28.16;53.19;101155.31;5053849;28;20049;-57
2023/08/16 00:38:43;;;;;;;4.90;4.40;;;;;;;28.16;53.15;101155.31;5051995;28;20053;-59
2023/08/16 00:41:11;;;;;;;4.35;3.83;;;;;;;28.15;53.31;101151.72;5053796;28;20045;-59
2023/08/16 00:43:39;;;;;;;4.60;4.20;;;;;;;28.15;52.98;101149.00;5052000;28;20041;-59
2023/08/16 00:46:13;;;;;;;5.20;4.70;;;;;;;28.16;53.32;101153.44;5052235;28;20049;-59
2023/08/16 00:48:43;;;;;;;4.65;4.25;;;;;;;28.16;53.13;101163.47;5053404;28;20053;-59
2023/08/16 00:51:11;;;;;;;5.10;4.68;;;;;;;28.15;52.93;101153.59;5053481;28;20047;-59
2023/08/16 00:53:40;;;;;;;4.80;4.35;;;;;;;28.16;53.30;101155.31;5052476;28;20044;-59
2023/08/16 00:56:12;;;;;;;;;;;;;;;28.14;53.38;101155.47;5040636;28;20526;-59
2023/08/16 00:58:40;;;;;;;4.50;4.10;;;;;;;28.15;52.96;101154.44;5033384;28;19921;-60
2023/08/16 01:01:08;;;;;;;4.47;4.07;;;;;;;28.16;53.38;101149.88;5034385;28;20045;-59
2023/08/16 01:03:36;;;;;;;5.38;4.88;;;;;;;28.16;52.90;101161.59;5034349;28;20044;-57
2023/08/16 01:06:04;;;;;;;4.80;4.35;;;;;;;28.15;53.04;101151.72;5035509;28;20056;-57
2023/08/16 01:08:32;;;;;;;4.85;4.45;;;;;;;28.16;53.53;101149.88;5033238;28;20526;-59
2023/08/16 01:11:08;;;;;;;4.97;4.47;;;;;;;28.16;53.40;101150.72;5034215;28;20076;-59
2023/08/16 01:13:57;;;;;;;4.70;4.30;;;;;;;28.16;53.12;101152.59;5034408;28;20487;-59
2023/08/16 01:16:27;;;;;;;5.38;4.88;;;;;;;28.15;53.11;101148.16;5033336;28;20049;-59
2023/08/16 01:18:57;;;;;;;5.15;4.68;;;;;;;28.15;53.11;101145.44;5035065;28;20045;-59
2023/08/16 01:21:26;;;;;;;4.55;4.15;;;;;;;28.15;53.12;101149.00;5033302;28;20423;-59
2023/08/16 01:24:08;;;;;;;5.45;4.95;;;;;;;28.16;53.32;101145.28;5033528;28;20052;-59
2023/08/16 01:26:37;;;;;;;;;;;;;;;28.14;53.16;101146.47;5033258;28;20056;-59
2023/08/16 01:29:07;;;;;;;4.57;4.18;;;;;;;28.15;53.32;101146.28;5034047;28;19921;-60
2023/08/16 01:31:35;;;;;;;4.28;3.88;;;;;;;28.16;53.19;101141.72;5033285;28;20513;-59
2023/08/16 01:34:05;;;;;;;5.13;4.63;;;;;;;28.15;53.01;101145.44;5032631;28;20060;-59
2023/08/16 01:36:32;;;;;;;5.25;4.75;;;;;;;28.15;53.04;101142.72;5032691;28;20049;-59
2023/08/16 01:38:59;;;;;;;5.25;4.75;;;;;;;28.15;53.44;101145.44;5032788;28;20053;-57
2023/08/16 01:41:30;;;;;;;4.85;4.45;;;;;;;28.15;53.40;101142.72;5037165;28;20431;-57
2023/08/16 01:43:58;;;;;;;5.38;4.88;;;;;;;28.16;53.38;101136.25;5039187;28;20042;-57
2023/08/16 01:46:27;;;;;;;4.60;4.20;;;;;;;28.16;53.31;101147.16;5039322;28;20411;-57
2023/08/16 01:48:56;;;;;;;5.00;4.55;;;;;;;28.16;53.41;101144.44;5040546;28;20503;-59
2023/08/16 01:51:24;;;;;;;4.97;4.57;;;;;;;28.16;53.12;101149.88;5040661;28;20049;-59
2023/08/16 01:53:53;;;;;;;4.95;4.10;;;;;;;28.16;53.06;101144.44;5039317;28;20048;-59
2023/08/16 01:56:21;;;;;;;5.05;4.65;;;;;;;28.16;53.47;101141.72;5039237;28;20065;-59
2023/08/16 01:58:49;;;;;;;4.93;4.53;;;;;;;28.16;53.28;101141.72;5039109;28;20049;-59
2023/08/16 02:01:17;;;;;;;5.03;4.53;;;;;;;28.16;53.04;101139.81;5039550;28;20049;-59
2023/08/16 02:03:44;;;;;;;5.15;4.65;;;;;;;28.17;53.29;101137.94;5040848;28;20379;-59
2023/08/16 02:06:12;;;;;;;5.15;4.75;;;;;;;28.15;53.16;101140.84;5039109;28;20061;-59
2023/08/16 02:08:39;;;;;;;5.47;4.97;;;;;;;28.16;53.51;101138.97;5039089;28;20049;-58
2023/08/16 02:11:06;;;;;;;4.85;4.45;;;;;;;28.15;53.02;101143.56;5051312;28;20041;-57
2023/08/16 02:13:34;;;;;;;5.00;4.60;;;;;;;28.15;53.24;101138.09;5057593;28;20071;-57
2023/08/16 02:16:02;;;;;;;4.90;4.40;;;;;;;28.16;53.53;101139.81;5057403;28;20045;-57
2023/08/16 02:18:31;;;;;;;5.38;4.95;;;;;;;28.16;53.17;101137.09;5057728;28;20053;-57
2023/08/16 02:20:59;;;;;;;5.40;4.65;;;;;;;28.16;53.06;101133.53;5058940;28;20057;-57
2023/08/16 02:23:26;;;;;;;5.38;4.88;;;;;;;28.16;53.50;101138.97;5058870;28;20041;-57
2023/08/16 02:25:54;;;;;;;4.82;4.43;;;;;;;28.16;53.36;101142.53;5059291;28;20056;-57
2023/08/16 02:28:24;;;;;;;5.07;4.63;;;;;;;28.16;53.45;101141.72;5057746;28;20053;-58
2023/08/16 02:30:51;;;;;;;5.18;4.78;;;;;;;28.16;53.10;101134.38;5057404;28;20064;-57
2023/08/16 02:33:19;;;;;;;6.22;5.10;;;;;;;28.16;53.21;101133.53;5058179;28;20052;-57
2023/08/16 02:35:47;;;;;;;6.10;5.15;;;;;;;28.15;53.49;101129.09;5058767;28;20407;-57
2023/08/16 02:38:15;;;;;;;5.20;4.78;;;;;;;28.16;53.47;101131.66;5059450;28;20040;-57
2023/08/16 02:40:42;;;;;;;5.53;5.03;;;;;;;28.16;53.50;101130.81;5057015;28;20060;-57
2023/08/16 02:43:11;;;;;;;4.65;4.25;;;;;;;28.16;53.12;101130.81;5059549;28;20048;-57
2023/08/16 02:45:39;;;;;;;5.00;4.50;;;;;;;28.15;53.51;101129.94;5059021;28;20056;-57
2023/08/16 02:48:08;;;;;;;4.85;4.45;;;;;;;28.15;53.40;101123.66;5059113;28;20057;-59
2023/08/16 02:50:35;;;;;;;4.88;4.47;;;;;;;28.16;53.50;101131.66;5038623;28;20419;-59
2023/08/16 02:53:03;;;;;;;5.15;4.65;;;;;;;28.16;53.54;101133.53;5036154;28;20124;-59
2023/08/16 02:55:30;;;;;;;5.32;4.80;;;;;;;28.15;53.12;101134.53;5036743;28;20057;-59
2023/08/16 02:57:59;;;;;;;5.32;4.82;;;;;;;28.16;53.26;101119.94;5035406;28;20042;-57
2023/08/16 03:00:26;;;;;;;5.53;5.03;;;;;;;28.16;53.46;101119.94;5055070;28;20041;-57
2023/08/16 03:02:54;;;;;;;5.53;5.03;;;;;;;28.15;53.15;101118.22;5054409;28;20049;-57
2023/08/16 03:05:21;;;;;;;5.25;4.85;;;;;;;28.16;53.05;101119.94;5055240;28;20041;-57
2023/08/16 03:07:49;;;;;;;5.93;5.07;;;;;;;28.16;53.31;101126.22;5053593;28;20055;-59
2023/08/16 03:10:17;;;;;;;5.03;4.50;;;;;;;28.16;53.10;101119.94;5055795;28;20041;-59
2023/08/16 03:12:44;;;;;;;4.97;4.47;;;;;;;28.16;53.42;101126.22;5053881;28;20057;-59
2023/08/16 03:15:12;;;;;;;5.50;5.00;;;;;;;28.15;53.23;101118.22;5054007;28;20048;-59
2023/08/16 03:17:39;;;;;;;5.45;4.95;;;;;;;28.15;53.32;101124.50;5054949;28;20048;-57
2023/08/16 03:20:09;;;;;;;4.90;4.47;;;;;;;28.16;53.59;101122.66;5053427;28;20045;-57
2023/08/16 03:22:37;;;;;;;5.43;4.93;;;;;;;28.16;53.21;101120.78;5053283;28;20049;-57
2023/08/16 03:25:05;;;;;;;5.55;5.05;;;;;;;28.16;53.49;101117.22;5049382;28;20056;-57
2023/08/16 03:27:32;;;;;;;4.93;4.50;;;;;;;28.15;53.61;101124.50;5036674;28;20495;-57
2023/08/16 03:30:00;;;;;;;4.80;4.40;;;;;;;28.15;53.18;101124.50;5035375;28;20492;-57
2023/08/16 03:32:28;;;;;;;5.35;4.85;;;;;;;28.16;53.22;101130.81;5034085;28;20053;-58
2023/08/16 03:34:55;;;;;;;5.50;5.00;;;;;;;28.16;53.59;101136.25;5034362;28;20049;-57
2023/08/16 03:37:23;;;;;;;5.18;4.70;;;;;;;28.17;53.19;101137.94;5035036;28;20415;-57
2023/08/16 03:39:52;;;;;;;5.15;4.70;;;;;;;28.15;53.56;101132.66;5035755;28;20060;-57
2023/08/16 03:42:19;;;;;;;6.30;4.90;;;;;;;28.15;53.68;101131.81;5035356;28;20048;-57
2023/08/16 03:44:46;;;;;;;5.38;4.88;;;;;;;28.15;53.19;101140.84;5034568;28;20492;-57
2023/08/16 03:47:14;;;;;;;4.88;4.40;;;;;;;28.15;53.25;101134.53;5035184;28;20048;-59
2023/08/16 03:49:43;;;;;;;5.53;5.03;;;;;;;28.15;53.48;101151.72;5033750;28;20056;-59
2023/08/16 03:52:10;;;;;;;5.60;5.10;;;;;;;28.16;53.67;101155.31;5034165;28;20403;-59
2023/08/16 03:54:37;;;;;;;5.03;4.60;;;;;;;28.15;53.23;101148.16;5035079;28;20092;-59
2023/08/16 03:57:05;;;;;;;5.32;4.65;;;;;;;28.16;53.22;101155.31;5034815;28;20049;-59
2023/08/16 03:59:33;;;;;;;5.53;5.00;;;;;;;28.16;53.14;101158.88;5035709;28;20048;-59
2023/08/16 04:02:00;;;;;;;5.63;4.95;;;;;;;28.16;53.63;101155.31;5035812;28;20049;-59
2023/08/16 04:04:27;;;;;;;5.40;4.90;;;;;;;28.15;53.10;101154.44;5034242;28;20037;-59
2023/08/16 04:06:55;;;;;;;5.82;5.32;;;;;;;28.14;53.29;101154.63;5035506;28;20051;-59
2023/08/16 04:09:22;;;;;;;5.38;4.88;;;;;;;28.16;53.57;101163.47;5036155;28;20053;-59
2023/08/16 04:11:50;;;;;;;5.47;4.97;;;;;;;28.15;53.50;101168.06;5034124;28;20060;-59
2023/08/16 04:14:17;;;;;;;5.13;4.72;;;;;;;28.15;53.28;101167.22;5035166;28;20037;-59
2023/08/16 04:16:45;;;;;;;5.07;4.57;;;;;;;28.16;53.51;101166.22;5035472;28;20055;-59
2023/08/16 04:19:12;;;;;;;4.88;4.47;;;;;;;28.15;53.31;101164.50;5035065;28;20046;-60
2023/08/16 04:21:40;;;;;;;5.75;5.20;;;;;;;28.15;53.17;101164.50;5033955;28;20542;-59
2023/08/16 04:24:07;;;;;;;5.00;4.60;;;;;;;28.15;53.15;101172.66;5035030;28;20488;-59
2023/08/16 04:26:34;;;;;;;5.03;4.53;;;;;;;28.16;53.66;101171.66;5035260;28;20052;-59
2023/08/16 04:29:04;;;;;;;5.35;4.90;;;;;;;28.15;53.28;101173.50;5033529;28;20057;-59
2023/08/16 04:31:32;;;;;;;5.35;4.85;;;;;;;28.15;53.50;101183.53;5033955;28;20053;-60
2023/08/16 04:34:01;;;;;;;5.50;5.00;;;;;;;28.15;53.15;101180.81;5033651;28;20060;-59
2023/08/16 04:36:28;;;;;;;5.18;4.78;;;;;;;28.15;53.49;101181.66;5034207;28;20045;-59
2023/08/16 04:38:56;;;;;;;5.32;4.82;;;;;;;28.15;53.31;101186.25;5034949;28;20061;-57
2023/08/16 04:41:24;;;;;;;5.32;4.90;;;;;;;28.15;53.18;101181.66;5038208;28;20064;-57
2023/08/16 04:43:51;;;;;;;5.50;4.82;;;;;;;28.15;53.46;101178.09;5034202;28;20053;-58
2023/08/16 04:46:18;;;;;;;5.30;4.80;;;;;;;28.15;53.29;101184.38;5034295;28;20045;-57
2023/08/16 04:48:46;;;;;;;5.57;5.07;;;;;;;28.15;53.49;101178.09;5033570;28;20132;-57
2023/08/16 04:51:13;;;;;;;4.55;4.15;;;;;;;28.14;53.59;101187.31;5034573;28;20046;-57
2023/08/16 04:53:40;;;;;;;5.68;4.30;;;;;;;28.15;53.37;101184.38;5033474;28;20049;-57
2023/08/16 04:56:08;;;;;;;5.38;4.88;;;;;;;28.15;53.54;101189.84;5033650;28;20050;-57
2023/08/16 04:58:36;;;;;;;4.93;4.53;;;;;;;28.15;53.45;101195.28;5033577;28;20056;-57
2023/08/16 05:01:03;;;;;;;4.88;4.47;;;;;;;28.15;53.09;101187.09;5034546;28;20045;-58
2023/08/16 05:03:32;;;;;;;5.28;4.78;;;;;;;28.15;53.60;101189.84;5033347;28;20053;-57
2023/08/16 05:06:01;;;;;;;5.55;5.05;;;;;;;28.15;53.26;101197.16;5035438;28;20049;-57
2023/08/16 05:08:30;;;;;;;5.70;5.20;;;;;;;28.15;53.58;101200.72;5033388;28;20426;-57
2023/08/16 05:10:59;;;;;;;5.00;4.60;;;;;;;28.15;53.24;101194.44;5033389;28;20495;-58
2023/08/16 05:13:26;;;;;;;5.10;4.65;;;;;;;28.14;53.13;101195.47;5033237;28;20050;-57
2023/08/16 05:15:53;;;;;;;5.13;4.72;;;;;;;28.14;53.12;101206.34;5034270;28;20060;-57
2023/08/16 05:18:22;;;;;;;5.70;5.20;;;;;;;28.15;53.23;101216.22;5032796;28;20052;-59
2023/08/16 05:20:50;;;;;;;4.65;4.25;;;;;;;28.15;53.26;101210.75;5033063;28;20053;-59
2023/08/16 05:23:18;;;;;;;5.03;4.53;;;;;;;28.15;53.21;101227.09;5034119;28;20049;-59
2023/08/16 05:25:45;;;;;;;5.30;4.80;;;;;;;28.15;53.13;101216.22;5034528;28;20399;-59
2023/08/16 05:28:12;;;;;;;5.63;5.13;;;;;;;28.15;53.58;101227.09;5034322;28;20056;-57
2023/08/16 05:30:40;;;;;;;5.70;5.13;;;;;;;28.14;53.28;101226.25;5034780;28;20045;-58
2023/08/16 05:33:07;;;;;;;5.03;4.63;;;;;;;28.15;53.24;101238.00;5034561;28;20045;-57
2023/08/16 05:35:34;;;;;;;5.22;4.72;;;;;;;28.15;53.17;101232.53;5034060;28;20404;-58
2023/08/16 05:38:04;;;;;;;5.22;4.78;;;;;;;28.14;53.47;101231.69;5034400;28;20049;-58
2023/08/16 05:40:31;;;;;;;5.30;4.90;;;;;;;28.14;53.30;101234.41;5033751;28;20045;-57
2023/08/16 05:42:59;;;;;;;5.38;4.90;;;;;;;28.13;53.23;101230.00;5033830;28;20053;-57
2023/08/16 05:45:28;;;;;;;4.57;4.18;;;;;;;28.14;53.12;101237.16;5034004;28;20049;-58
2023/08/16 05:47:56;;;;;;;5.30;4.90;;;;;;;28.14;53.13;101228.97;5033688;28;20045;-58
2023/08/16 05:50:23;;;;;;;5.78;5.28;;;;;;;28.14;53.58;101219.97;5034060;28;20400;-58
2023/08/16 05:52:51;;;;;;;5.50;5.00;;;;;;;28.14;53.16;101228.13;5033635;28;20049;-57
2023/08/16 05:55:18;;;;;;;4.88;4.47;;;;;;;28.15;53.13;101227.09;5038823;28;20041;-57
2023/08/16 05:57:45;;;;;;;5.13;4.65;;;;;;;28.14;53.53;101228.97;5052518;28;20060;-57
2023/08/16 06:00:13;;;;;;;5.95;4.90;;;;;;;28.14;53.38;101231.69;5052480;28;20052;-57
2023/08/16 06:02:41;;;;;;;5.30;4.82;;;;;;;28.15;53.52;101227.09;5052455;28;20384;-57
2023/08/16 06:05:09;;;;;;;5.60;5.03;;;;;;;28.15;53.22;101227.09;5051709;28;20061;-57
2023/08/16 06:07:37;;;;;;;5.13;4.63;;;;;;;28.15;53.39;101230.66;5051216;28;20072;-59
2023/08/16 06:10:06;;;;;;;5.45;4.95;;;;;;;28.14;53.04;101228.97;5052391;28;20516;-59
2023/08/16 06:12:33;;;;;;;5.45;4.95;;;;;;;28.14;53.39;101219.97;5052278;28;20049;-59
2023/08/16 06:15:00;;;;;;;5.40;4.90;;;;;;;28.14;53.48;101220.81;5051724;28;20049;-60
2023/08/16 06:17:28;;;;;;;5.43;4.93;;;;;;;28.15;53.47;101229.81;5052244;28;20418;-57
2023/08/16 06:19:56;;;;;;;6.05;5.55;;;;;;;28.16;53.09;101234.25;5052299;28;20044;-58
2023/08/16 06:22:23;;;;;;;5.30;4.80;;;;;;;28.15;53.30;101232.53;5052378;28;20049;-58
2023/08/16 06:24:50;;;;;;;5.47;5.07;;;;;;;28.14;53.48;101228.97;5051605;28;20049;-57
2023/08/16 06:27:18;;;;;;;5.63;5.13;;;;;;;28.14;53.59;101237.16;5052846;28;20049;-59
2023/08/16 06:29:45;;;;;;;5.60;5.10;;;;;;;28.14;53.31;101237.16;5055766;28;20044;-59
2023/08/16 06:32:13;;;;;;;5.20;4.53;;;;;;;28.14;53.56;101234.41;5055990;28;20048;-59
2023/08/16 06:34:40;;;;;;;5.03;4.63;;;;;;;28.14;53.52;101231.69;5055263;28;20053;-60
2023/08/16 06:37:07;;;;;;;5.03;4.63;;;;;;;28.16;53.23;101234.25;5055211;28;20068;-59
2023/08/16 06:39:35;;;;;;;4.90;4.50;;;;;;;28.14;53.61;101245.31;5054547;28;20049;-59
2023/08/16 06:42:03;;;;;;;4.85;4.45;;;;;;;28.15;53.66;101251.59;5055608;28;20045;-60
2023/08/16 06:44:31;;;;;;;5.50;5.00;;;;;;;28.15;53.59;101246.16;5053583;28;20049;-59
2023/08/16 06:46:58;;;;;;;5.50;5.00;;;;;;;28.16;53.71;101247.88;5055662;28;20045;-59
2023/08/16 06:49:26;;;;;;;5.40;4.90;;;;;;;28.14;53.30;101242.59;5055513;28;20076;-59
2023/08/16 06:51:53;;;;;;;5.20;4.72;;;;;;;28.15;53.58;101252.44;5054922;28;20052;-60
2023/08/16 06:54:21;;;;;;;5.15;4.65;;;;;;;28.15;53.67;101240.72;5054642;28;20045;-59
2023/08/16 06:56:49;;;;;;;5.63;5.13;;;;;;;28.15;53.29;101254.31;5055468;28;20041;-60
2023/08/16 06:59:16;;;;;;;5.53;5.03;;;;;;;28.15;53.66;101243.44;5055529;28;20592;-58
2023/08/16 07:01:44;;;;;;;4.90;4.50;;;;;;;28.15;53.20;101244.28;5055423;28;20048;-57
2023/08/16 07:04:11;;;;;;;5.20;4.70;;;;;;;28.16;53.51;101245.16;5054599;28;20042;-58
2023/08/16 07:06:38;;;;;;;5.35;4.85;;;;;;;28.16;53.72;101242.44;5054656;28;20047;-57
2023/08/16 07:09:06;;;;;;;6.57;4.93;;;;;;;28.16;53.42;101239.69;5055580;28;20049;-57
2023/08/16 07:11:33;;;;;;;5.00;4.60;;;;;;;28.16;53.63;101242.44;5039142;28;20045;-57
2023/08/16 07:14:00;;;;;;;4.78;4.38;;;;;;;28.16;53.73;101258.75;5036959;28;20040;-57
2023/08/16 07:16:28;;;;;;;5.18;4.68;;;;;;;28.16;53.30;101256.03;5036251;28;20050;-57
2023/08/16 07:18:56;;;;;;;5.60;5.10;;;;;;;28.15;53.50;101255.16;5036306;28;20056;-57
2023/08/16 07:21:23;;;;;;;4.57;4.18;;;;;;;28.16;53.79;101258.75;5036310;28;20052;-58
2023/08/16 07:23:50;;;;;;;5.97;5.38;;;;;;;28.16;53.67;101253.31;5036966;28;20053;-57
2023/08/16 07:26:18;;;;;;;5.40;4.90;;;;;;;28.16;53.39;101245.16;5036253;28;20060;-57
2023/08/16 07:28:45;;;;;;;5.45;4.95;;;;;;;28.15;53.34;101252.44;5036662;28;20056;-57
2023/08/16 07:31:12;;;;;;;5.30;4.80;;;;;;;28.15;53.34;101248.88;5036244;28;20052;-57
2023/08/16 07:33:40;;;;;;;5.20;4.70;;;;;;;28.15;53.56;101244.28;5036027;28;20060;-57
2023/08/16 07:36:07;;;;;;;5.15;4.65;;;;;;;28.17;53.62;101252.28;5036078;28;20065;-57
2023/08/16 07:38:35;;;;;;;5.72;5.22;;;;;;;28.15;53.66;101247.00;5035516;28;20144;-59
2023/08/16 07:41:02;;;;;;;5.30;4.80;;;;;;;28.16;53.72;101246.00;5035964;28;20048;-59
2023/08/16 07:43:30;;;;;;;5.30;4.80;;;;;;;28.16;53.32;101250.59;5036024;28;20044;-59
2023/08/16 07:45:57;;;;;;;5.07;4.60;;;;;;;28.16;53.40;101259.59;5035727;28;20046;-59
2023/08/16 07:48:24;;;;;;;5.78;5.28;;;;;;;28.16;53.37;101259.59;5036048;28;20049;-58
2023/08/16 07:50:52;;;;;;;5.18;4.75;;;;;;;28.16;53.35;101259.59;5035583;28;20049;-57
2023/08/16 07:53:22;;;;;;;5.25;4.75;;;;;;;28.17;53.74;101260.44;5035917;28;20052;-58
2023/08/16 07:55:49;;;;;;;5.35;4.65;;;;;;;28.16;53.65;101261.47;5035369;28;20491;-57
2023/08/16 07:58:17;;;;;;;5.05;4.65;;;;;;;28.16;53.37;101259.59;5035792;28;20046;-59
2023/08/16 08:00:48;;;;;;;4.75;4.25;;;;;;;28.17;53.45;101255.00;5035865;28;20045;-59
2023/08/16 08:03:16;;;;;;;5.40;4.97;;;;;;;28.17;53.72;101249.56;5035790;28;20048;-59
2023/08/16 08:05:43;;;;;;;5.07;4.68;;;;;;;28.17;53.35;101253.13;5035050;28;20056;-59
2023/08/16 08:08:11;;;;;;;5.10;4.60;;;;;;;28.18;53.28;101253.97;5035347;28;20050;-57
2023/08/16 08:10:42;;;;;;;4.95;4.53;;;;;;;28.16;53.65;101251.44;5035294;28;20076;-57
2023/08/16 08:13:11;;;;;;;5.38;4.85;;;;;;;28.17;53.19;101253.13;5054808;28;20052;-57
2023/08/16 08:15:38;;;;;;;5.22;4.72;;;;;;;28.18;53.57;101264.84;5054479;28;20491;-57
2023/08/16 08:18:05;;;;;;;5.07;4.68;;;;;;;28.18;53.54;101256.69;5054259;28;20045;-59
2023/08/16 08:20:35;;;;;;;5.40;4.90;;;;;;;28.18;53.47;101257.53;5053696;28;20045;-59
2023/08/16 08:23:02;;;;;;;5.40;4.90;;;;;;;28.18;53.35;101252.09;5033290;28;20533;-59
2023/08/16 08:25:30;;;;;;;5.60;5.10;;;;;;;28.18;53.19;101243.06;5034454;28;20050;-59
2023/08/16 08:27:58;;;;;;;5.20;4.70;;;;;;;28.18;53.53;101249.38;5035351;28;20045;-57
2023/08/16 08:30:26;;;;;;;4.80;4.40;;;;;;;28.19;53.56;101245.59;5035296;28;20487;-57
2023/08/16 08:32:57;;;;;;;5.53;4.97;;;;;;;28.18;53.25;101243.91;5034961;28;20056;-57
2023/08/16 08:35:24;;;;;;;5.28;4.78;;;;;;;28.19;53.23;101247.47;5034879;28;20060;-57
2023/08/16 08:37:52;;;;;;;5.10;4.60;;;;;;;28.19;53.52;101247.47;5034829;28;20067;-59
2023/08/16 08:40:20;;;;;;;5.60;5.10;;;;;;;28.20;53.39;101249.19;5035540;28;20037;-59
2023/08/16 08:42:49;;;;;;;4.80;4.40;;;;;;;28.19;53.35;101247.47;5034675;28;20046;-59
2023/08/16 08:45:17;;;;;;;4.95;4.55;;;;;;;28.19;53.35;101245.59;5034799;28;20045;-59
2023/08/16 08:47:45;;;;;;;5.07;4.57;;;;;;;28.19;53.09;101251.06;5034804;28;20045;-59
2023/08/16 08:50:12;;;;;;;5.25;4.75;;;;;;;28.19;53.58;101244.75;5034763;28;20495;-59
2023/08/16 08:52:42;;;;;;;5.22;4.72;;;;;;;28.19;53.33;101252.94;5034288;28;20049;-59
2023/08/16 08:55:09;;;;;;;5.30;4.82;;;;;;;28.19;53.17;101251.06;5034833;28;20061;-59
2023/08/16 08:57:37;;;;;;;4.60;4.20;;;;;;;28.21;53.15;101254.47;5034608;28;20507;-57
2023/08/16 09:00:06;;;;;;;5.72;5.22;;;;;;;28.20;53.16;101250.06;5035321;28;20391;-57
2023/08/16 09:02:36;;;;;;;5.05;4.65;;;;;;;28.20;53.04;101258.22;5034926;28;20049;-58
2023/08/16 09:05:07;;;;;;;5.63;5.13;;;;;;;28.21;53.37;101254.47;5035014;28;20049;-58
2023/08/16 09:07:35;;;;;;;5.05;4.55;;;;;;;28.20;53.43;101260.94;5034210;28;20037;-57
2023/08/16 09:10:06;;;;;;;5.90;5.30;;;;;;;28.20;53.34;101252.78;5034820;28;20050;-57
2023/08/16 09:12:36;;;;;;;5.18;4.70;;;;;;;28.22;52.98;101247.97;5034070;28;20056;-57
2023/08/16 09:15:04;;;;;;;4.95;4.55;;;;;;;28.20;53.38;101251.94;5034037;28;20049;-57
2023/08/16 09:17:32;;;;;;;4.82;4.43;;;;;;;28.20;53.33;101251.94;5034314;28;20045;-59
2023/08/16 09:20:05;;;;;;;5.43;4.93;;;;;;;28.23;53.40;101251.53;5033459;28;20049;-59
2023/08/16 09:22:33;;;;;;;5.63;5.13;;;;;;;28.21;53.32;101243.56;5033778;28;20056;-59
2023/08/16 09:25:02;;;;;;;4.53;4.13;;;;;;;28.22;53.17;101252.56;5033421;28;20057;-59
2023/08/16 09:27:31;;;;;;;5.07;4.68;;;;;;;28.22;53.43;101249.84;5033349;28;20053;-57
2023/08/16 09:29:59;;;;;;;5.70;5.20;;;;;;;28.22;53.39;101256.16;5033250;28;20045;-57
2023/08/16 09:32:33;;;;;;;5.05;4.55;;;;;;;28.22;53.21;101247.97;5033745;28;20068;-57
2023/08/16 09:35:00;;;;;;;5.28;4.78;;;;;;;28.21;53.37;101243.56;5033676;28;20068;-57
2023/08/16 09:37:31;;;;;;;5.70;4.10;;;;;;;28.22;52.94;101245.25;5033345;28;20053;-57
2023/08/16 09:39:59;;;;;;;5.30;4.80;;;;;;;28.23;53.21;101248.81;5033357;28;20411;-57
2023/08/16 09:42:33;;;;;;;4.82;4.43;;;;;;;28.22;53.04;101245.25;5032657;28;20500;-57
2023/08/16 09:45:01;;;;;;;4.88;4.47;;;;;;;28.22;53.24;101242.53;5033261;28;20053;-57
2023/08/16 09:47:30;;;;;;;4.97;4.47;;;;;;;28.23;53.06;101241.50;5034129;28;20041;-57
2023/08/16 09:50:05;;;;;;;5.10;4.60;;;;;;;28.23;52.90;101240.66;5034032;28;20057;-57
2023/08/16 09:52:34;;;;;;;;;;;;;;;28.21;53.38;101238.13;5034224;28;20057;-57
2023/08/16 09:55:03;;;;;;;4.75;4.32;;;;;;;28.23;53.05;101235.19;5033921;28;19928;-57
2023/08/16 09:57:30;;;;;;;5.68;5.15;;;;;;;28.23;52.89;101229.75;5034119;28;20053;-59
2023/08/16 09:59:57;;;;;;;5.18;4.68;;;;;;;28.23;52.80;101224.31;5033469;28;20076;-59
2023/08/16 10:02:25;;;;;;;5.22;4.80;;;;;;;28.22;53.26;101228.91;5035441;28;20049;-59
2023/08/16 10:04:57;;;;;;;5.60;5.10;;;;;;;28.24;53.17;101220.59;5038308;28;20514;-59
2023/08/16 10:07:26;;;;;;;5.60;5.10;;;;;;;28.24;53.03;101231.47;5037701;28;20037;-57
2023/08/16 10:09:54;;;;;;;4.75;4.35;;;;;;;28.23;53.10;101222.44;5037549;28;20049;-57
2023/08/16 10:12:23;;;;;;;5.05;4.55;;;;;;;28.24;52.89;101228.75;5037738;28;20423;-57
2023/08/16 10:14:51;;;;;;;5.32;4.82;;;;;;;28.24;53.06;101223.31;5038518;28;20402;-57
2023/08/16 10:17:21;;;;;;;4.40;4.00;;;;;;;28.24;52.91;101224.16;5037566;28;20419;-57
2023/08/16 10:19:57;;;;;;;5.18;4.68;;;;;;;28.24;53.17;101217.88;5038184;28;20060;-57
2023/08/16 10:22:32;;;;;;;5.32;4.68;;;;;;;28.24;53.07;101218.72;5037535;28;20060;-57
2023/08/16 10:25:15;;;;;;;4.70;4.30;;;;;;;28.25;52.85;101219.56;5041483;28;20506;-57
2023/08/16 10:27:44;;;;;;;5.05;4.55;;;;;;;28.25;52.88;101223.13;5056142;28;20072;-59
2023/08/16 10:30:20;;;;;;;4.60;4.20;;;;;;;28.25;53.20;101217.66;5055841;28;20398;-59
2023/08/16 10:32:53;;;;;;;5.10;4.60;;;;;;;28.25;53.09;101222.28;5056154;28;20052;-59
2023/08/16 10:35:21;;;;;;;5.13;4.70;;;;;;;28.25;53.17;101219.56;5055876;28;20060;-59
2023/08/16 10:37:49;;;;;;;5.75;5.25;;;;;;;28.24;52.85;101217.88;5056488;28;20045;-59
2023/08/16 10:40:19;;;;;;;5.15;4.75;;;;;;;28.24;53.05;101205.09;5055112;28;20049;-59
2023/08/16 10:43:08;;;;;;;5.38;4.20;;;;;;;28.25;52.82;101201.34;5056319;28;20041;-59
2023/08/16 10:45:35;;;;;;;5.05;4.65;;;;;;;28.25;52.57;101197.78;5055999;28;20052;-59
2023/08/16 10:48:19;;;;;;;5.43;4.93;;;;;;;28.25;52.94;101201.34;5054854;28;20059;-59
2023/08/16 10:50:59;;;;;;;4.93;4.53;;;;;;;28.25;52.99;101201.34;5056428;28;20405;-59
2023/08/16 10:53:28;;;;;;;5.10;4.70;;;;;;;28.25;53.03;101206.78;5055946;28;20048;-59
2023/08/16 10:55:56;;;;;;;5.38;4.88;;;;;;;28.24;53.19;101194.19;5042929;28;20045;-59
2023/08/16 10:58:25;;;;;;;5.65;5.15;;;;;;;28.25;52.66;101195.06;5036302;28;20045;-59
2023/08/16 11:00:57;;;;;;;5.13;4.63;;;;;;;28.25;53.02;101190.44;5035947;28;20055;-59
2023/08/16 11:03:35;;;;;;;5.10;4.70;;;;;;;28.26;52.96;101191.28;5036264;28;20046;-59
2023/08/16 11:06:08;;;;;;;4.88;4.43;;;;;;;28.25;52.64;101195.06;5035829;28;20045;-59
2023/08/16 11:08:43;;;;;;;4.82;4.43;;;;;;;28.25;52.75;101195.88;5036196;28;20056;-57
2023/08/16 11:11:12;;;;;;;5.35;4.85;;;;;;;28.26;52.67;101185.84;5036194;28;20392;-57
2023/08/16 11:13:41;;;;;;;5.07;4.68;;;;;;;28.25;52.79;101181.44;5035220;28;20048;-57
2023/08/16 11:16:10;;;;;;;4.80;4.40;;;;;;;28.26;53.06;101183.13;5035748;28;20045;-57
2023/08/16 11:18:41;;;;;;;4.68;4.28;;;;;;;28.25;52.65;101179.56;5036152;28;20041;-57
2023/08/16 11:21:16;;;;;;;5.13;4.65;;;;;;;28.26;53.11;101180.41;5036086;28;20041;-57
2023/08/16 11:23:44;;;;;;;5.53;5.03;;;;;;;28.25;52.99;101187.72;5035610;28;20054;-57
2023/08/16 11:26:12;;;;;;;4.70;4.30;;;;;;;28.25;53.09;101176.84;5035814;28;20415;-57
2023/08/16 11:28:40;;;;;;;5.07;4.65;;;;;;;28.24;52.92;101177.03;5035798;28;20045;-57
2023/08/16 11:31:09;;;;;;;4.70;4.30;;;;;;;28.26;52.76;101169.50;5035384;28;20042;-57
2023/08/16 11:33:40;;;;;;;5.20;4.70;;;;;;;28.26;53.05;101164.06;5035896;28;20072;-57